sensor_id;sensor_type;location;lat;lon;timestamp;pressure;altitude;pressure_sealevel;temperature;humidity
62864;BME280;48954;59.950;11.014;2023-05-29T00:00:40;100374.02;;;6.85;40.22
62864;BME280;48954;59.950;11.014;2023-05-29T00:03:25;100383.33;;;6.83;40.59
62864;BME280;48954;59.950;11.014;2023-05-29T00:06:06;100385.48;;;6.82;40.75
62864;BME280;48954;59.950;11.014;2023-05-29T00:09:00;100385.05;;;6.77;40.75
62864;BME280;48954;59.950;11.014;2023-05-29T00:11:43;100380.33;;;6.73;40.63
62864;BME280;48954;59.950;11.014;2023-05-29T00:14:34;100374.17;;;6.70;40.72
62864;BME280;48954;59.950;11.014;2023-05-29T00:17:45;100383.30;;;6.69;40.84
62864;BME280;48954;59.950;11.014;2023-05-29T00:20:40;100391.90;;;6.66;40.94
62864;BME280;48954;59.950;11.014;2023-05-29T00:23:31;100393.80;;;6.63;41.30
62864;BME280;48954;59.950;11.014;2023-05-29T00:26:33;100398.34;;;6.61;42.07
62864;BME280;48954;59.950;11.014;2023-05-29T00:29:21;100398.55;;;6.59;42.18
62864;BME280;48954;59.950;11.014;2023-05-29T00:32:40;100396.85;;;6.54;42.20
62864;BME280;48954;59.950;11.014;2023-05-29T00:35:45;100390.67;;;6.46;42.27
62864;BME280;48954;59.950;11.014;2023-05-29T00:38:52;100394.02;;;6.35;42.19
62864;BME280;48954;59.950;11.014;2023-05-29T00:41:54;100398.41;;;6.31;42.50
62864;BME280;48954;59.950;11.014;2023-05-29T00:44:59;100393.07;;;6.24;42.45
62864;BME280;48954;59.950;11.014;2023-05-29T00:47:44;100394.20;;;6.20;42.70
62864;BME280;48954;59.950;11.014;2023-05-29T00:50:25;100401.08;;;6.17;42.60
62864;BME280;48954;59.950;11.014;2023-05-29T00:53:08;100402.92;;;6.14;42.90
62864;BME280;48954;59.950;11.014;2023-05-29T00:55:52;100406.26;;;6.12;43.05
62864;BME280;48954;59.950;11.014;2023-05-29T00:58:58;100408.43;;;6.10;43.41
62864;BME280;48954;59.950;11.014;2023-05-29T01:02:24;100415.50;;;6.04;43.29
62864;BME280;48954;59.950;11.014;2023-05-29T01:05:34;100421.81;;;6.01;43.39
62864;BME280;48954;59.950;11.014;2023-05-29T01:08:45;100424.61;;;5.95;43.58
62864;BME280;48954;59.950;11.014;2023-05-29T01:19:09;100437.88;;;5.76;43.79
62864;BME280;48954;59.950;11.014;2023-05-29T01:25:19;100430.46;;;5.70;44.90
62864;BME280;48954;59.950;11.014;2023-05-29T01:28:29;100425.80;;;5.66;44.43
62864;BME280;48954;59.950;11.014;2023-05-29T01:31:23;100430.48;;;5.63;44.43
62864;BME280;48954;59.950;11.014;2023-05-29T01:34:29;100437.02;;;5.62;44.87
62864;BME280;48954;59.950;11.014;2023-05-29T01:37:55;100439.48;;;5.56;45.02
62864;BME280;48954;59.950;11.014;2023-05-29T01:40:57;100446.27;;;5.52;44.99
62864;BME280;48954;59.950;11.014;2023-05-29T01:44:09;100453.32;;;5.49;44.84
62864;BME280;48954;59.950;11.014;2023-05-29T01:47:33;100445.41;;;5.45;44.96
62864;BME280;48954;59.950;11.014;2023-05-29T01:50:48;100443.08;;;5.42;45.79
62864;BME280;48954;59.950;11.014;2023-05-29T01:54:15;100454.34;;;5.38;45.53
62864;BME280;48954;59.950;11.014;2023-05-29T01:57:18;100456.20;;;5.36;46.36
62864;BME280;48954;59.950;11.014;2023-05-29T02:00:30;100450.02;;;5.33;46.27
62864;BME280;48954;59.950;11.014;2023-05-29T02:03:19;100445.82;;;5.26;46.16
62864;BME280;48954;59.950;11.014;2023-05-29T02:06:37;100447.72;;;5.21;45.71
62864;BME280;48954;59.950;11.014;2023-05-29T02:09:42;100447.21;;;5.22;45.83
62864;BME280;48954;59.950;11.014;2023-05-29T02:12:43;100452.75;;;5.23;45.70
62864;BME280;48954;59.950;11.014;2023-05-29T02:15:59;100457.77;;;5.26;45.65
62864;BME280;48954;59.950;11.014;2023-05-29T02:19:04;100445.83;;;5.29;45.97
62864;BME280;48954;59.950;11.014;2023-05-29T02:21:47;100443.15;;;5.26;46.20
62864;BME280;48954;59.950;11.014;2023-05-29T02:24:28;100444.29;;;5.21;46.18
62864;BME280;48954;59.950;11.014;2023-05-29T02:27:32;100451.69;;;5.18;46.08
62864;BME280;48954;59.950;11.014;2023-05-29T02:30:36;100460.25;;;5.15;46.54
62864;BME280;48954;59.950;11.014;2023-05-29T02:33:46;100462.55;;;5.09;46.45
62864;BME280;48954;59.950;11.014;2023-05-29T02:37:06;100458.81;;;5.06;46.51
62864;BME280;48954;59.950;11.014;2023-05-29T02:40:14;100455.53;;;5.04;47.59
62864;BME280;48954;59.950;11.014;2023-05-29T02:43:34;100463.17;;;4.98;47.77
62864;BME280;48954;59.950;11.014;2023-05-29T02:46:18;100477.30;;;4.93;47.80
62864;BME280;48954;59.950;11.014;2023-05-29T02:49:41;100481.65;;;4.91;47.88
62864;BME280;48954;59.950;11.014;2023-05-29T02:52:34;100474.20;;;4.90;47.98
62864;BME280;48954;59.950;11.014;2023-05-29T02:55:49;100466.79;;;4.90;48.10
62864;BME280;48954;59.950;11.014;2023-05-29T02:58:55;100470.60;;;4.90;48.40
62864;BME280;48954;59.950;11.014;2023-05-29T03:02:03;100480.96;;;4.87;48.34
62864;BME280;48954;59.950;11.014;2023-05-29T03:05:07;100478.72;;;4.82;48.62
62864;BME280;48954;59.950;11.014;2023-05-29T03:08:03;100472.73;;;4.79;48.66
62864;BME280;48954;59.950;11.014;2023-05-29T03:11:16;100468.38;;;4.77;48.83
62864;BME280;48954;59.950;11.014;2023-05-29T03:14:18;100477.08;;;4.78;48.50
62864;BME280;48954;59.950;11.014;2023-05-29T03:17:10;100482.31;;;4.80;48.61
62864;BME280;48954;59.950;11.014;2023-05-29T03:20:12;100489.31;;;4.83;49.06
62864;BME280;48954;59.950;11.014;2023-05-29T03:23:15;100479.33;;;4.87;49.62
62864;BME280;48954;59.950;11.014;2023-05-29T03:26:17;100470.70;;;4.91;49.33
62864;BME280;48954;59.950;11.014;2023-05-29T03:29:18;100463.88;;;4.95;49.44
62864;BME280;48954;59.950;11.014;2023-05-29T03:32:36;100468.27;;;4.99;49.82
62864;BME280;48954;59.950;11.014;2023-05-29T03:36:07;100472.20;;;5.01;49.14
62864;BME280;48954;59.950;11.014;2023-05-29T03:38:51;100467.74;;;5.04;49.06
62864;BME280;48954;59.950;11.014;2023-05-29T03:41:58;100465.25;;;5.04;49.03
62864;BME280;48954;59.950;11.014;2023-05-29T03:45:23;100462.63;;;5.08;49.77
62864;BME280;48954;59.950;11.014;2023-05-29T03:48:09;100472.89;;;5.10;49.35
62864;BME280;48954;59.950;11.014;2023-05-29T03:51:17;100484.75;;;5.09;49.46
62864;BME280;48954;59.950;11.014;2023-05-29T03:54:03;100491.54;;;5.11;49.24
62864;BME280;48954;59.950;11.014;2023-05-29T04:00:31;100489.52;;;5.20;49.10
62864;BME280;48954;59.950;11.014;2023-05-29T04:03:14;100487.73;;;5.30;49.16
62864;BME280;48954;59.950;11.014;2023-05-29T04:06:17;100491.39;;;5.43;50.10
62864;BME280;48954;59.950;11.014;2023-05-29T04:09:19;100494.98;;;5.53;50.15
62864;BME280;48954;59.950;11.014;2023-05-29T04:12:21;100492.40;;;5.65;49.69
62864;BME280;48954;59.950;11.014;2023-05-29T04:15:36;100483.64;;;5.73;49.96
62864;BME280;48954;59.950;11.014;2023-05-29T04:18:46;100472.13;;;5.82;50.11
62864;BME280;48954;59.950;11.014;2023-05-29T04:22:15;100471.87;;;5.89;49.94
62864;BME280;48954;59.950;11.014;2023-05-29T04:25:19;100486.29;;;5.96;49.56
62864;BME280;48954;59.950;11.014;2023-05-29T04:28:09;100493.09;;;6.01;49.89
62864;BME280;48954;59.950;11.014;2023-05-29T04:31:04;100492.52;;;6.04;49.49
62864;BME280;48954;59.950;11.014;2023-05-29T04:33:56;100494.63;;;6.07;49.37
62864;BME280;48954;59.950;11.014;2023-05-29T04:37:03;100497.41;;;6.08;49.24
62864;BME280;48954;59.950;11.014;2023-05-29T04:40:32;100506.90;;;6.06;48.82
62864;BME280;48954;59.950;11.014;2023-05-29T04:44:12;100506.08;;;6.08;48.39
62864;BME280;48954;59.950;11.014;2023-05-29T04:47:14;100501.14;;;6.13;49.13
62864;BME280;48954;59.950;11.014;2023-05-29T04:50:20;100502.55;;;6.19;48.34
62864;BME280;48954;59.950;11.014;2023-05-29T04:53:04;100508.02;;;6.24;47.82
62864;BME280;48954;59.950;11.014;2023-05-29T04:55:45;100510.73;;;6.32;47.81
62864;BME280;48954;59.950;11.014;2023-05-29T04:58:25;100513.53;;;6.41;47.22
62864;BME280;48954;59.950;11.014;2023-05-29T05:01:06;100515.96;;;6.51;47.18
62864;BME280;48954;59.950;11.014;2023-05-29T05:03:35;100520.16;;;6.66;47.88
62864;BME280;48954;59.950;11.014;2023-05-29T05:06:04;100520.23;;;6.81;47.32
62864;BME280;48954;59.950;11.014;2023-05-29T05:08:44;100518.45;;;6.98;47.06
62864;BME280;48954;59.950;11.014;2023-05-29T05:11:22;100512.01;;;7.15;47.28
62864;BME280;48954;59.950;11.014;2023-05-29T05:14:24;100518.23;;;7.34;46.36
62864;BME280;48954;59.950;11.014;2023-05-29T05:17:04;100519.38;;;7.50;47.26
62864;BME280;48954;59.950;11.014;2023-05-29T05:19:34;100521.52;;;7.66;47.50
62864;BME280;48954;59.950;11.014;2023-05-29T05:22:03;100520.80;;;7.84;47.22
62864;BME280;48954;59.950;11.014;2023-05-29T05:24:43;100514.82;;;8.05;47.26
62864;BME280;48954;59.950;11.014;2023-05-29T05:27:47;100517.25;;;8.26;46.21
62864;BME280;48954;59.950;11.014;2023-05-29T05:30:30;100513.62;;;8.44;45.80
62864;BME280;48954;59.950;11.014;2023-05-29T05:33:20;100520.31;;;8.63;45.26
62864;BME280;48954;59.950;11.014;2023-05-29T05:36:06;100512.91;;;8.84;45.42
62864;BME280;48954;59.950;11.014;2023-05-29T05:38:48;100513.46;;;9.03;44.71
62864;BME280;48954;59.950;11.014;2023-05-29T05:41:32;100507.88;;;9.16;43.99
62864;BME280;48954;59.950;11.014;2023-05-29T05:44:13;100507.39;;;9.33;44.74
62864;BME280;48954;59.950;11.014;2023-05-29T05:46:53;100497.77;;;9.52;44.11
62864;BME280;48954;59.950;11.014;2023-05-29T05:49:24;100491.84;;;9.70;44.10
62864;BME280;48954;59.950;11.014;2023-05-29T06:24:03;100494.30;;;10.90;40.05
62864;BME280;48954;59.950;11.014;2023-05-29T06:26:30;100492.45;;;10.68;38.96
62864;BME280;48954;59.950;11.014;2023-05-29T06:29:32;100489.29;;;10.53;39.50
62864;BME280;48954;59.950;11.014;2023-05-29T06:32:13;100483.68;;;10.46;39.45
62864;BME280;48954;59.950;11.014;2023-05-29T06:34:54;100483.84;;;10.42;39.67
62864;BME280;48954;59.950;11.014;2023-05-29T06:37:44;100481.27;;;10.44;40.24
62864;BME280;48954;59.950;11.014;2023-05-29T06:40:25;100486.38;;;10.51;39.68
62864;BME280;48954;59.950;11.014;2023-05-29T06:43:30;100488.50;;;10.62;39.64
62864;BME280;48954;59.950;11.014;2023-05-29T06:46:11;100482.64;;;10.88;39.61
62864;BME280;48954;59.950;11.014;2023-05-29T06:49:12;100479.09;;;11.16;39.51
62864;BME280;48954;59.950;11.014;2023-05-29T06:51:54;100478.04;;;11.30;38.84
62864;BME280;48954;59.950;11.014;2023-05-29T06:54:34;100474.37;;;11.42;38.88
62864;BME280;48954;59.950;11.014;2023-05-29T06:57:15;100467.23;;;11.45;38.36
62864;BME280;48954;59.950;11.014;2023-05-29T07:00:17;100469.79;;;11.54;38.09
62864;BME280;48954;59.950;11.014;2023-05-29T07:14:31;100471.38;;;11.73;36.54
62864;BME280;48954;59.950;11.014;2023-05-29T07:17:12;100471.92;;;11.71;37.27
62864;BME280;48954;59.950;11.014;2023-05-29T07:19:57;100474.35;;;11.77;37.68
62864;BME280;48954;59.950;11.014;2023-05-29T07:23:00;100472.27;;;11.87;36.73
62864;BME280;48954;59.950;11.014;2023-05-29T07:25:42;100465.99;;;11.93;35.94
62864;BME280;48954;59.950;11.014;2023-05-29T07:28:29;100464.25;;;11.90;35.97
62864;BME280;48954;59.950;11.014;2023-05-29T07:31:11;100464.52;;;12.03;36.88
62864;BME280;48954;59.950;11.014;2023-05-29T07:34:12;100460.82;;;12.17;35.51
62864;BME280;48954;59.950;11.014;2023-05-29T07:37:12;100455.19;;;12.16;35.05
62864;BME280;48954;59.950;11.014;2023-05-29T07:39:52;100456.61;;;12.28;36.01
62864;BME280;48954;59.950;11.014;2023-05-29T07:42:35;100454.16;;;12.49;36.04
62864;BME280;48954;59.950;11.014;2023-05-29T07:45:06;100454.45;;;12.66;35.32
62864;BME280;48954;59.950;11.014;2023-05-29T07:50:29;100446.29;;;12.84;35.07
62864;BME280;48954;59.950;11.014;2023-05-29T07:53:43;100445.17;;;12.90;34.64
62864;BME280;48954;59.950;11.014;2023-05-29T08:05:10;100457.40;;;12.68;33.10
62864;BME280;48954;59.950;11.014;2023-05-29T08:16:07;100438.41;;;12.62;33.30
62864;BME280;48954;59.950;11.014;2023-05-29T08:21:25;100428.97;;;12.89;33.35
62864;BME280;48954;59.950;11.014;2023-05-29T08:27:17;100424.38;;;12.88;32.19
62864;BME280;48954;59.950;11.014;2023-05-29T08:35:33;100415.55;;;12.72;31.97
62864;BME280;48954;59.950;11.014;2023-05-29T08:41:20;100420.76;;;12.63;31.80
62864;BME280;48954;59.950;11.014;2023-05-29T08:44:40;100421.79;;;12.71;31.85
62864;BME280;48954;59.950;11.014;2023-05-29T08:58:40;100409.08;;;13.09;31.50
62864;BME280;48954;59.950;11.014;2023-05-29T09:03:46;100416.48;;;13.24;31.09
62864;BME280;48954;59.950;11.014;2023-05-29T09:06:34;100415.20;;;13.24;30.65
62864;BME280;48954;59.950;11.014;2023-05-29T09:18:07;100405.68;;;13.47;30.55
62864;BME280;48954;59.950;11.014;2023-05-29T09:21:08;100403.94;;;13.58;30.25
62864;BME280;48954;59.950;11.014;2023-05-29T09:29:09;100401.62;;;13.53;29.63
62864;BME280;48954;59.950;11.014;2023-05-29T09:31:45;100399.76;;;13.50;29.75
62864;BME280;48954;59.950;11.014;2023-05-29T09:34:38;100396.27;;;13.50;30.06
62864;BME280;48954;59.950;11.014;2023-05-29T09:37:32;100394.06;;;13.62;30.22
62864;BME280;48954;59.950;11.014;2023-05-29T09:40:00;100390.60;;;13.67;30.26
62864;BME280;48954;59.950;11.014;2023-05-29T09:42:40;100391.83;;;13.53;30.28
62864;BME280;48954;59.950;11.014;2023-05-29T09:45:21;100387.39;;;13.29;30.46
62864;BME280;48954;59.950;11.014;2023-05-29T09:53:28;100383.92;;;12.95;31.29
62864;BME280;48954;59.950;11.014;2023-05-29T10:01:42;100375.81;;;12.63;31.43
62864;BME280;48954;59.950;11.014;2023-05-29T10:04:37;100372.02;;;12.59;31.52
62864;BME280;48954;59.950;11.014;2023-05-29T10:07:27;100368.81;;;12.56;31.75
62864;BME280;48954;59.950;11.014;2023-05-29T10:10:08;100367.54;;;12.55;31.78
62864;BME280;48954;59.950;11.014;2023-05-29T10:12:52;100363.20;;;12.56;31.70
62864;BME280;48954;59.950;11.014;2023-05-29T10:15:57;100369.48;;;12.58;31.90
62864;BME280;48954;59.950;11.014;2023-05-29T10:18:43;100367.56;;;12.66;32.04
62864;BME280;48954;59.950;11.014;2023-05-29T10:21:32;100360.79;;;12.76;31.93
62864;BME280;48954;59.950;11.014;2023-05-29T10:24:32;100359.98;;;12.87;31.73
62864;BME280;48954;59.950;11.014;2023-05-29T10:27:05;100352.21;;;12.95;31.84
62864;BME280;48954;59.950;11.014;2023-05-29T10:30:39;100350.67;;;13.07;32.08
62864;BME280;48954;59.950;11.014;2023-05-29T10:33:18;100344.02;;;13.19;31.86
62864;BME280;48954;59.950;11.014;2023-05-29T10:36:25;100341.59;;;13.25;31.81
62864;BME280;48954;59.950;11.014;2023-05-29T10:38:56;100338.28;;;13.29;31.64
62864;BME280;48954;59.950;11.014;2023-05-29T10:42:48;100334.49;;;13.32;31.93
62864;BME280;48954;59.950;11.014;2023-05-29T10:50:51;100330.04;;;13.43;32.34
62864;BME280;48954;59.950;11.014;2023-05-29T10:53:49;100337.65;;;13.44;32.64
62864;BME280;48954;59.950;11.014;2023-05-29T10:56:22;100340.00;;;13.47;33.04
62864;BME280;48954;59.950;11.014;2023-05-29T10:58:55;100336.48;;;13.53;33.52
62864;BME280;48954;59.950;11.014;2023-05-29T11:01:24;100339.34;;;13.62;33.80
62864;BME280;48954;59.950;11.014;2023-05-29T11:03:54;100336.77;;;13.65;34.08
62864;BME280;48954;59.950;11.014;2023-05-29T11:09:36;100332.14;;;13.53;34.22
62864;BME280;48954;59.950;11.014;2023-05-29T11:12:25;100334.11;;;13.53;34.14
62864;BME280;48954;59.950;11.014;2023-05-29T11:15:10;100326.48;;;13.55;34.45
62864;BME280;48954;59.950;11.014;2023-05-29T11:20:34;100321.44;;;13.72;34.23
62864;BME280;48954;59.950;11.014;2023-05-29T11:23:06;100326.77;;;13.65;33.98
62864;BME280;48954;59.950;11.014;2023-05-29T11:25:34;100320.33;;;13.62;33.95
62864;BME280;48954;59.950;11.014;2023-05-29T11:28:01;100312.75;;;13.68;34.26
62864;BME280;48954;59.950;11.014;2023-05-29T11:30:28;100307.23;;;13.77;33.96
62864;BME280;48954;59.950;11.014;2023-05-29T11:33:00;100296.76;;;13.74;33.45
62864;BME280;48954;59.950;11.014;2023-05-29T11:35:35;100297.17;;;13.67;33.57
62864;BME280;48954;59.950;11.014;2023-05-29T11:38:04;100295.27;;;13.61;33.41
62864;BME280;48954;59.950;11.014;2023-05-29T11:40:37;100294.26;;;13.63;33.48
62864;BME280;48954;59.950;11.014;2023-05-29T11:43:05;100294.94;;;13.69;33.50
62864;BME280;48954;59.950;11.014;2023-05-29T11:45:41;100300.48;;;13.73;33.27
62864;BME280;48954;59.950;11.014;2023-05-29T11:48:11;100295.95;;;13.72;33.28
62864;BME280;48954;59.950;11.014;2023-05-29T11:50:42;100293.73;;;13.76;33.53
62864;BME280;48954;59.950;11.014;2023-05-29T11:53:09;100284.82;;;13.78;33.46
62864;BME280;48954;59.950;11.014;2023-05-29T11:55:37;100284.58;;;13.77;33.47
62864;BME280;48954;59.950;11.014;2023-05-29T11:58:04;100283.08;;;13.81;33.53
62864;BME280;48954;59.950;11.014;2023-05-29T12:00:36;100278.92;;;13.83;33.39
62864;BME280;48954;59.950;11.014;2023-05-29T12:03:10;100271.42;;;13.83;33.39
62864;BME280;48954;59.950;11.014;2023-05-29T12:05:48;100280.67;;;13.88;33.59
62864;BME280;48954;59.950;11.014;2023-05-29T12:08:15;100279.44;;;13.95;33.65
62864;BME280;48954;59.950;11.014;2023-05-29T12:10:48;100267.70;;;14.02;33.49
62864;BME280;48954;59.950;11.014;2023-05-29T12:13:15;100269.27;;;14.10;33.36
62864;BME280;48954;59.950;11.014;2023-05-29T12:15:45;100262.73;;;14.17;33.38
62864;BME280;48954;59.950;11.014;2023-05-29T12:18:15;100264.63;;;14.21;33.13
62864;BME280;48954;59.950;11.014;2023-05-29T12:20:42;100271.28;;;14.27;33.17
62864;BME280;48954;59.950;11.014;2023-05-29T12:23:18;100263.20;;;14.26;33.17
62864;BME280;48954;59.950;11.014;2023-05-29T12:25:51;100268.15;;;14.20;32.96
62864;BME280;48954;59.950;11.014;2023-05-29T12:28:21;100265.25;;;14.11;33.12
62864;BME280;48954;59.950;11.014;2023-05-29T12:31:03;100264.16;;;14.12;33.32
62864;BME280;48954;59.950;11.014;2023-05-29T12:33:43;100265.63;;;14.14;33.22
62864;BME280;48954;59.950;11.014;2023-05-29T12:36:18;100262.24;;;14.16;33.51
62864;BME280;48954;59.950;11.014;2023-05-29T12:38:51;100260.26;;;14.20;33.47
62864;BME280;48954;59.950;11.014;2023-05-29T12:41:33;100255.52;;;14.21;33.58
62864;BME280;48954;59.950;11.014;2023-05-29T12:44:13;100251.39;;;14.25;33.62
62864;BME280;48954;59.950;11.014;2023-05-29T12:46:42;100243.77;;;14.29;33.54
62864;BME280;48954;59.950;11.014;2023-05-29T12:49:16;100243.70;;;14.34;33.53
62864;BME280;48954;59.950;11.014;2023-05-29T12:51:45;100241.72;;;14.33;33.67
62864;BME280;48954;59.950;11.014;2023-05-29T12:54:16;100240.00;;;14.35;33.56
62864;BME280;48954;59.950;11.014;2023-05-29T12:56:44;100239.00;;;14.36;33.71
62864;BME280;48954;59.950;11.014;2023-05-29T12:59:10;100239.16;;;14.36;33.36
62864;BME280;48954;59.950;11.014;2023-05-29T13:01:38;100232.77;;;14.37;33.58
62864;BME280;48954;59.950;11.014;2023-05-29T13:04:05;100230.65;;;14.43;34.03
62864;BME280;48954;59.950;11.014;2023-05-29T13:06:37;100227.90;;;14.48;33.68
62864;BME280;48954;59.950;11.014;2023-05-29T13:09:07;100226.00;;;14.55;33.44
62864;BME280;48954;59.950;11.014;2023-05-29T13:11:34;100221.02;;;14.65;33.36
62864;BME280;48954;59.950;11.014;2023-05-29T13:14:01;100217.33;;;14.74;33.52
62864;BME280;48954;59.950;11.014;2023-05-29T13:16:29;100215.53;;;14.83;33.56
62864;BME280;48954;59.950;11.014;2023-05-29T13:18:55;100225.85;;;14.85;33.23
62864;BME280;48954;59.950;11.014;2023-05-29T13:21:22;100221.45;;;14.82;33.45
62864;BME280;48954;59.950;11.014;2023-05-29T13:23:49;100215.18;;;14.86;33.76
62864;BME280;48954;59.950;11.014;2023-05-29T13:26:19;100218.60;;;14.87;33.23
62864;BME280;48954;59.950;11.014;2023-05-29T13:28:48;100214.66;;;14.83;33.21
62864;BME280;48954;59.950;11.014;2023-05-29T13:31:24;100214.78;;;14.79;33.46
62864;BME280;48954;59.950;11.014;2023-05-29T13:33:52;100212.15;;;14.76;33.38
62864;BME280;48954;59.950;11.014;2023-05-29T13:36:22;100207.35;;;14.73;33.51
62864;BME280;48954;59.950;11.014;2023-05-29T13:38:54;100202.53;;;14.69;33.63
62864;BME280;48954;59.950;11.014;2023-05-29T13:41:21;100201.74;;;14.67;33.68
62864;BME280;48954;59.950;11.014;2023-05-29T13:43:50;100200.63;;;14.66;33.91
62864;BME280;48954;59.950;11.014;2023-05-29T13:46:19;100200.22;;;14.66;33.92
62864;BME280;48954;59.950;11.014;2023-05-29T13:48:49;100202.10;;;14.64;33.81
62864;BME280;48954;59.950;11.014;2023-05-29T13:51:19;100198.05;;;14.58;34.04
62864;BME280;48954;59.950;11.014;2023-05-29T13:54:06;100193.86;;;14.58;34.53
62864;BME280;48954;59.950;11.014;2023-05-29T13:56:33;100188.16;;;14.58;34.35
62864;BME280;48954;59.950;11.014;2023-05-29T13:59:15;100183.20;;;14.53;34.47
62864;BME280;48954;59.950;11.014;2023-05-29T14:01:44;100181.05;;;14.47;34.60
62864;BME280;48954;59.950;11.014;2023-05-29T14:04:13;100175.28;;;14.46;34.79
62864;BME280;48954;59.950;11.014;2023-05-29T14:06:41;100176.13;;;14.45;34.82
62864;BME280;48954;59.950;11.014;2023-05-29T14:09:10;100174.80;;;14.46;34.89
62864;BME280;48954;59.950;11.014;2023-05-29T14:11:50;100171.40;;;14.46;35.19
62864;BME280;48954;59.950;11.014;2023-05-29T14:14:17;100173.89;;;14.48;35.31
62864;BME280;48954;59.950;11.014;2023-05-29T14:16:45;100167.29;;;14.46;35.19
62864;BME280;48954;59.950;11.014;2023-05-29T14:19:18;100169.75;;;14.46;35.25
62864;BME280;48954;59.950;11.014;2023-05-29T14:21:45;100164.02;;;14.44;35.34
62864;BME280;48954;59.950;11.014;2023-05-29T14:24:12;100162.35;;;14.44;35.48
62864;BME280;48954;59.950;11.014;2023-05-29T14:26:43;100158.77;;;14.47;35.75
62864;BME280;48954;59.950;11.014;2023-05-29T14:29:24;100158.30;;;14.53;35.82
62864;BME280;48954;59.950;11.014;2023-05-29T14:31:53;100159.52;;;14.56;35.86
62864;BME280;48954;59.950;11.014;2023-05-29T14:34:22;100160.58;;;14.59;35.84
62864;BME280;48954;59.950;11.014;2023-05-29T14:37:01;100158.98;;;14.63;35.87
62864;BME280;48954;59.950;11.014;2023-05-29T14:39:29;100158.73;;;14.70;35.95
62864;BME280;48954;59.950;11.014;2023-05-29T14:41:59;100163.04;;;14.78;35.87
62864;BME280;48954;59.950;11.014;2023-05-29T14:44:35;100163.20;;;14.86;35.81
62864;BME280;48954;59.950;11.014;2023-05-29T14:47:04;100157.52;;;15.01;35.72
62864;BME280;48954;59.950;11.014;2023-05-29T14:49:33;100156.19;;;15.19;35.79
62864;BME280;48954;59.950;11.014;2023-05-29T14:52:06;100154.36;;;15.26;35.45
62864;BME280;48954;59.950;11.014;2023-05-29T14:54:46;100148.56;;;15.40;35.49
62864;BME280;48954;59.950;11.014;2023-05-29T14:57:12;100145.65;;;15.67;35.47
62864;BME280;48954;59.950;11.014;2023-05-29T14:59:39;100141.50;;;15.84;35.19
62864;BME280;48954;59.950;11.014;2023-05-29T15:02:06;100142.01;;;16.12;35.07
62864;BME280;48954;59.950;11.014;2023-05-29T15:04:41;100147.30;;;16.37;34.61
62864;BME280;48954;59.950;11.014;2023-05-29T15:07:08;100143.16;;;16.47;34.53
62864;BME280;48954;59.950;11.014;2023-05-29T15:09:39;100141.51;;;16.53;34.60
62864;BME280;48954;59.950;11.014;2023-05-29T15:12:06;100138.10;;;16.53;34.53
62864;BME280;48954;59.950;11.014;2023-05-29T15:17:52;100135.58;;;16.41;34.54
62864;BME280;48954;59.950;11.014;2023-05-29T15:20:27;100128.83;;;16.41;34.52
62864;BME280;48954;59.950;11.014;2023-05-29T15:22:56;100126.85;;;16.40;34.39
62864;BME280;48954;59.950;11.014;2023-05-29T15:25:39;100133.78;;;16.44;34.53
62864;BME280;48954;59.950;11.014;2023-05-29T15:28:08;100141.60;;;16.57;34.50
62864;BME280;48954;59.950;11.014;2023-05-29T15:30:37;100133.47;;;16.62;34.55
62864;BME280;48954;59.950;11.014;2023-05-29T15:33:15;100130.38;;;16.78;34.82
62864;BME280;48954;59.950;11.014;2023-05-29T15:35:43;100131.15;;;17.03;35.05
62864;BME280;48954;59.950;11.014;2023-05-29T15:38:10;100130.30;;;17.19;34.54
62864;BME280;48954;59.950;11.014;2023-05-29T15:40:38;100134.05;;;17.27;34.41
62864;BME280;48954;59.950;11.014;2023-05-29T15:43:08;100131.37;;;17.37;34.49
62864;BME280;48954;59.950;11.014;2023-05-29T15:45:38;100128.10;;;17.43;34.35
62864;BME280;48954;59.950;11.014;2023-05-29T15:48:18;100135.73;;;17.40;34.14
62864;BME280;48954;59.950;11.014;2023-05-29T15:50:48;100135.56;;;17.32;34.07
62864;BME280;48954;59.950;11.014;2023-05-29T15:53:15;100133.58;;;17.25;34.02
62864;BME280;48954;59.950;11.014;2023-05-29T15:55:50;100134.09;;;17.08;33.95
62864;BME280;48954;59.950;11.014;2023-05-29T15:58:33;100125.09;;;16.93;34.33
62864;BME280;48954;59.950;11.014;2023-05-29T16:01:28;100130.95;;;16.90;34.21
62864;BME280;48954;59.950;11.014;2023-05-29T16:04:08;100131.72;;;16.80;34.56
62864;BME280;48954;59.950;11.014;2023-05-29T16:06:36;100134.90;;;16.82;34.27
62864;BME280;48954;59.950;11.014;2023-05-29T16:09:18;100133.68;;;17.00;34.32
62864;BME280;48954;59.950;11.014;2023-05-29T16:12:14;100139.14;;;17.39;33.91
62864;BME280;48954;59.950;11.014;2023-05-29T16:14:44;100131.75;;;17.43;33.91
62864;BME280;48954;59.950;11.014;2023-05-29T16:17:10;100132.46;;;17.32;34.11
62864;BME280;48954;59.950;11.014;2023-05-29T16:19:56;100126.26;;;17.18;34.22
62864;BME280;48954;59.950;11.014;2023-05-29T16:22:30;100124.44;;;17.23;34.35
62864;BME280;48954;59.950;11.014;2023-05-29T16:24:58;100124.05;;;17.40;34.16
62864;BME280;48954;59.950;11.014;2023-05-29T16:27:38;100125.00;;;17.36;33.98
62864;BME280;48954;59.950;11.014;2023-05-29T16:30:07;100124.05;;;17.26;33.71
62864;BME280;48954;59.950;11.014;2023-05-29T16:32:38;100125.16;;;17.23;33.54
62864;BME280;48954;59.950;11.014;2023-05-29T16:35:12;100126.11;;;17.22;33.74
62864;BME280;48954;59.950;11.014;2023-05-29T16:37:49;100124.36;;;17.26;33.69
62864;BME280;48954;59.950;11.014;2023-05-29T16:40:20;100131.77;;;17.35;33.35